Buoy 31735

sailwx.info

Track history (hours):
 
Tides and Currents Weather Stations Pressure Air Temp Water Temp Dewpoint Dewpoint Depression Visibility Wind Speed Wind Dir Waves Ship Positions

Drifting buoy 31735

Last reported at 2018-Apr-22 04:00 UTC. Time now 2018-Apr-22 05:04 UTC.
Position N 20°23' W 064°13'.

Barometer 1019.0 mb
Water temperature 26.4 ° C

Date/timePositionNaut miles runAvg speedWind from/ knotsBaromVisibWave heightAir tempDewpointWater temp
2018-Apr-22 04:00N 20°23' W 064°13'0 0.0 1019.0 26.4
2018-Apr-22 03:00N 20°23' W 064°13'0 0.0 1019.1 26.3
2018-Apr-22 02:00N 20°23' W 064°13'1 0.8 1019.3 26.4
2018-Apr-22 01:00N 20°23' W 064°14'0 0.0 1019.1 26.4
2018-Apr-22 00:00N 20°23' W 064°14'0 0.0 1018.8 26.4
2018-Apr-21 23:00N 20°23' W 064°14'0 0.0 1018.2 26.4
2018-Apr-21 22:00N 20°23' W 064°14'0 0.0 1017.8 26.4
2018-Apr-21 21:00N 20°23' W 064°14'1 0.8 1017.3 26.4
2018-Apr-21 20:00N 20°22' W 064°13'0 0.0 1017.0 26.5
2018-Apr-21 19:00N 20°22' W 064°13'0 0.0 1017.6 26.5
2018-Apr-21 18:00N 20°22' W 064°13'1 0.6 1018.0 26.4
2018-Apr-21 17:00N 20°22' W 064°13'0 0.0 1018.7 26.4
2018-Apr-21 16:00N 20°22' W 064°13'1 0.6 1019.3 26.4
2018-Apr-21 15:00N 20°22' W 064°12'0 0.0 1019.7 26.4
2018-Apr-21 14:00N 20°22' W 064°12'0 0.0 1019.6 26.3
2018-Apr-21 13:00N 20°22' W 064°12'1 0.3 1019.8 26.3
2018-Apr-21 11:00N 20°23' W 064°12'0 0.0 1019.8 26.3
2018-Apr-21 10:00N 20°23' W 064°12'1 0.6 1019.2 26.3
2018-Apr-21 09:00N 20°23' W 064°12'0 0.0 1018.5 26.3
2018-Apr-21 08:00N 20°23' W 064°12'0 0.0 1018.4 26.3
2018-Apr-21 07:00N 20°23' W 064°12'0 0.0 1018.4 26.2
2018-Apr-21 06:00N 20°23' W 064°12'1 0.6 1018.8 26.3
2018-Apr-21 05:00N 20°23' W 064°13'0 0.0 1019.0 26.3
2018-Apr-21 04:00N 20°23' W 064°13'0 0.0 1019.5 26.3
2018-Apr-21 03:00N 20°23' W 064°13'1 0.6 1019.9 26.3
2018-Apr-21 02:00N 20°23' W 064°13'0 0.0 1019.9 26.3
2018-Apr-21 01:00N 20°23' W 064°13'1 0.8 1019.5 26.3
2018-Apr-21 00:00N 20°22' W 064°13'0 0.0 1019.1 26.4
2018-Apr-20 23:00N 20°22' W 064°13'0 0.0 1018.6 26.4
2018-Apr-20 22:00N 20°22' W 064°13'0 0.0 1018.5 26.4
2018-Apr-20 21:00N 20°22' W 064°13'1 0.6 1018.3 26.4
2018-Apr-20 20:00N 20°22' W 064°13'0 0.0 1018.4 26.4
2018-Apr-20 19:00N 20°22' W 064°13'0 0.0 1018.8 26.4
2018-Apr-20 18:00N 20°22' W 064°13'1 0.6 1019.6 26.4
2018-Apr-20 17:00N 20°21' W 064°13'1 0.6 1020.3 26.4
2018-Apr-20 16:00N 20°21' W 064°13'0 0.0 1020.8 26.4
2018-Apr-20 15:00N 20°21' W 064°13'1 0.8 1021.1 26.3
2018-Apr-20 14:00N 20°20' W 064°12'0 0.0 1021.0 26.3
2018-Apr-20 13:00N 20°20' W 064°12'1 0.6 1021.3 26.2
2018-Apr-20 12:00N 20°20' W 064°11'1 0.6 1021.1 26.2
2018-Apr-20 11:00N 20°20' W 064°11'0 0.0 1020.7 26.2
2018-Apr-20 10:00N 20°20' W 064°11'1 0.6 1020.4 26.2
2018-Apr-20 09:00N 20°20' W 064°11'0 0.0 1019.8 26.2
2018-Apr-20 08:00N 20°20' W 064°11'0 0.0 1019.8 26.2
2018-Apr-20 07:00N 20°20' W 064°11'1 0.6 1020.1 26.2
2018-Apr-20 06:00N 20°20' W 064°10'1 0.6 1020.6 26.2
2018-Apr-20 05:00N 20°20' W 064°10'0 0.0 1021.3 26.2
2018-Apr-20 04:00N 20°20' W 064°10'0 0.0 1021.8 26.2
2018-Apr-20 03:00N 20°20' W 064°10'1 0.6 1022.1 26.2
2018-Apr-20 02:00N 20°20' W 064°10'0 0.0 1022.0 26.3
2018-Apr-20 01:00N 20°20' W 064°10'1 0.6 1021.6 26.3
2018-Apr-20 00:00N 20°20' W 064°10'0 0.0 1021.2 26.3
2018-Apr-19 23:00N 20°20' W 064°10'0 0.0 1020.9 26.3
2018-Apr-19 22:00N 20°20' W 064°10'1 0.6 1020.8 26.3
2018-Apr-19 21:00N 20°20' W 064°11'0 0.0 1020.4 26.4
2018-Apr-19 20:00N 20°20' W 064°11'1 0.6 1020.4 26.4
2018-Apr-19 19:00N 20°20' W 064°11'1 0.6 1020.6 26.4
2018-Apr-19 18:00N 20°20' W 064°11'0 0.0 1021.0 26.4
2018-Apr-19 17:00N 20°20' W 064°11'1 0.6 1021.5 26.4
2018-Apr-19 16:00N 20°19' W 064°11'1 0.6 1022.0 26.3
2018-Apr-19 15:00N 20°19' W 064°11'1 0.6 1022.2 26.3
2018-Apr-19 14:00N 20°19' W 064°11'1 0.6 1022.1 26.3
2018-Apr-19 13:00N 20°18' W 064°11'1 0.8 1021.8 26.2
2018-Apr-19 12:00N 20°17' W 064°10'0 0.0 1021.4 26.2
2018-Apr-19 11:00N 20°17' W 064°10'1 0.6 1020.8 26.2
2018-Apr-19 10:00N 20°17' W 064°10'1 0.6 1020.1 26.2
2018-Apr-19 09:00N 20°17' W 064°10'0 0.0 1019.5 26.2
2018-Apr-19 08:00N 20°17' W 064°10'0 0.0 1019.0 26.3
2018-Apr-19 07:00N 20°17' W 064°10'0 0.0 1019.0 26.3
2018-Apr-19 06:00N 20°17' W 064°10'1 0.6 1019.4 26.3
2018-Apr-19 05:00N 20°17' W 064°09'1 0.6 1020.1 26.3
2018-Apr-19 04:00N 20°16' W 064°09'0 0.0 1020.6 26.3
2018-Apr-19 03:00N 20°16' W 064°09'0 0.0 1021.1 26.3
2018-Apr-19 02:00N 20°16' W 064°09'1 0.6 1021.2 26.4
2018-Apr-19 01:00N 20°16' W 064°08'0 0.0 1021.1 26.4
2018-Apr-19 00:00N 20°16' W 064°08'0 0.0 1020.3 26.4
2018-Apr-18 23:00N 20°16' W 064°08'1 0.8 1019.7 26.4
2018-Apr-18 22:00N 20°16' W 064°08'0 0.0 1019.1 26.4
2018-Apr-18 21:00N 20°16' W 064°08'0 0.0 1018.8 26.5
2018-Apr-18 20:00N 20°16' W 064°08'1 0.6 1018.7 26.4
2018-Apr-18 19:00N 20°16' W 064°08'0 0.0 1018.8 26.4
2018-Apr-18 18:00N 20°16' W 064°08'0 0.0 1019.2 26.4
2018-Apr-18 17:00N 20°16' W 064°08'1 0.6 1019.7 26.4
2018-Apr-18 16:00N 20°16' W 064°07'0 0.0 1019.9 26.3
2018-Apr-18 15:00N 20°16' W 064°07'0 0.0 1020.2 26.3
2018-Apr-18 14:00N 20°16' W 064°07'0 0.0 1020.0 26.2
2018-Apr-18 13:00N 20°16' W 064°07'0 0.0 1019.6 26.2
2018-Apr-18 12:00N 20°16' W 064°07'1 0.6 1019.2 26.2
2018-Apr-18 11:00N 20°16' W 064°07'0 0.0 1018.6 26.2
2018-Apr-18 10:00N 20°16' W 064°07'0 0.0 1018.1 26.2
2018-Apr-18 09:00N 20°16' W 064°07'0 0.0 1017.4 26.2
2018-Apr-18 08:00N 20°16' W 064°07'0 0.0 1017.1 26.2
2018-Apr-18 07:00N 20°16' W 064°07'0 0.0 1016.9 26.2
2018-Apr-18 06:00N 20°16' W 064°07'1 0.6 1017.4 26.2
2018-Apr-18 05:00N 20°15' W 064°07'0 0.0 1018.1 26.2
2018-Apr-18 04:00N 20°15' W 064°07'0 0.0 1018.5 26.2
2018-Apr-18 03:00N 20°15' W 064°07'0 0.0 1018.7 26.3
2018-Apr-18 02:00N 20°15' W 064°07'1 0.6 1018.7 26.3
2018-Apr-18 01:00N 20°14' W 064°07'0 0.0 1018.3 26.3
2018-Apr-18 00:00N 20°14' W 064°07'1 0.6 1017.6 26.3
2018-Apr-17 23:00N 20°14' W 064°07'1 0.6 1017.1 26.3
2018-Apr-17 22:00N 20°14' W 064°07'0 0.0 1016.9 26.3
2018-Apr-17 21:00N 20°14' W 064°07'1 0.6 1016.7 26.4
2018-Apr-17 20:00N 20°13' W 064°07'1 0.6 1016.5 26.4
2018-Apr-17 19:00N 20°13' W 064°06'0 0.0 1016.9 26.4
2018-Apr-17 18:00N 20°13' W 064°06'1 0.6 1017.2 26.4
2018-Apr-17 17:00N 20°14' W 064°06'1 0.6 1018.0 26.2
2018-Apr-17 16:00N 20°14' W 064°05'0 0.0 1018.5 26.2
2018-Apr-17 15:00N 20°14' W 064°05'0 0.0 1018.9 26.1
2018-Apr-17 14:00N 20°14' W 064°05'1 0.6 1018.8 26.1
2018-Apr-17 13:00N 20°14' W 064°05'1 0.6 1019.0 26.0
2018-Apr-17 12:00N 20°13' W 064°05'0 0.0 1018.4 26.0
2018-Apr-17 11:00N 20°13' W 064°05'1 0.6 1017.9 26.0
2018-Apr-17 10:00N 20°13' W 064°04'0 0.0 1017.6 26.0
2018-Apr-17 09:00N 20°13' W 064°04'1 0.6 1017.3 26.0
2018-Apr-17 08:00N 20°13' W 064°04'0 0.0 1017.2 26.0
2018-Apr-17 07:00N 20°13' W 064°04'1 0.6 1017.5 26.0
2018-Apr-17 06:00N 20°14' W 064°04'1 0.6 1018.0 26.0
2018-Apr-17 05:00N 20°14' W 064°03'0 0.0 1018.5 26.0
2018-Apr-17 04:00N 20°14' W 064°03'0 0.0 1019.2 26.0
2018-Apr-17 03:00N 20°14' W 064°03'0 0.0 1019.3 26.0
2018-Apr-17 02:00N 20°14' W 064°03'0 0.0 1019.3 26.0
2018-Apr-17 01:00N 20°14' W 064°03'0 0.0 1018.9 26.0
2018-Apr-17 00:00N 20°14' W 064°03'0 0.0 1018.4 26.0
2018-Apr-16 23:00N 20°14' W 064°03'0 0.0 1018.1 26.0
2018-Apr-16 22:00N 20°14' W 064°03'0 0.0 1017.6 26.0
2018-Apr-16 21:00N 20°14' W 064°03'1 0.8 1017.6 26.1
2018-Apr-16 20:00N 20°13' W 064°02'0 0.0 1017.8 26.1
2018-Apr-16 19:00N 20°13' W 064°02'0 0.0 1018.2 26.1
2018-Apr-16 18:00N 20°13' W 064°02'1 0.6 1018.8 26.1
2018-Apr-16 17:00N 20°13' W 064°02'0 0.0 1019.6 26.0
2018-Apr-16 16:00N 20°13' W 064°02'0 0.0 1020.3 26.0
2018-Apr-16 15:00N 20°13' W 064°02'1 0.6 1021.1 26.0
2018-Apr-16 14:00N 20°13' W 064°01'0 0.0 1021.3 25.9
2018-Apr-16 13:00N 20°13' W 064°01'0 0.0 1021.0 25.9
2018-Apr-16 12:00N 20°13' W 064°01'1 0.6 1020.7 25.9
2018-Apr-16 11:00N 20°13' W 064°01'0 0.0 1020.4 25.9
2018-Apr-16 10:00N 20°13' W 064°01'1 0.6 1019.9 25.9
2018-Apr-16 09:00N 20°13' W 064°00'0 0.0 1019.4 25.9
2018-Apr-16 08:00N 20°13' W 064°00'0 0.0 1019.4 25.9
2018-Apr-16 07:00N 20°13' W 064°00'1 0.6 1019.4 25.9
2018-Apr-16 06:00N 20°13' W 063°59'0 0.0 1020.0 25.9
2018-Apr-16 05:00N 20°13' W 063°59'1 0.6 1020.6 25.9
2018-Apr-16 04:00N 20°13' W 063°59'0 0.0 1021.1 25.9
2018-Apr-16 03:00N 20°13' W 063°59'0 0.0 1021.5 25.9
2018-Apr-16 02:00N 20°13' W 063°59'1 0.6 1021.4 25.9
2018-Apr-16 01:00N 20°13' W 063°58'0 0.0 1021.2 25.9
2018-Apr-16 00:00N 20°13' W 063°58'1 0.6 1020.7 25.9
2018-Apr-15 23:00N 20°13' W 063°58'0 0.0 1020.3 26.0
2018-Apr-15 22:00N 20°13' W 063°58'1 0.6 1020.0 26.0
2018-Apr-15 21:00N 20°13' W 063°57'1 0.6 1019.7 26.0
2018-Apr-15 20:00N 20°13' W 063°56'0 0.0 1020.0 26.0
2018-Apr-15 19:00N 20°13' W 063°56'1 0.6 1020.3 26.0
2018-Apr-15 18:00N 20°13' W 063°56'1 0.6 1021.2 26.0
2018-Apr-15 17:00N 20°14' W 063°56'1 0.6 1022.2 26.0
2018-Apr-15 16:00N 20°14' W 063°55'0 0.0 1022.6 26.0
2018-Apr-15 15:00N 20°14' W 063°55'1 0.6 1022.7 25.9
2018-Apr-15 14:00N 20°14' W 063°55'1 0.6 1022.6 25.9
2018-Apr-15 13:00N 20°14' W 063°55'0 0.0 1022.1 25.9
2018-Apr-15 12:00N 20°14' W 063°55'1 0.6 1021.7 25.9
2018-Apr-15 11:00N 20°14' W 063°54'0 0.0 1021.1 25.9
2018-Apr-15 10:00N 20°14' W 063°54'0 0.0 1020.6 25.9
2018-Apr-15 09:00N 20°14' W 063°54'1 0.8 1020.0 25.9
2018-Apr-15 08:00N 20°15' W 063°53'0 0.0 1019.8 25.9
2018-Apr-15 07:00N 20°15' W 063°53'0 0.0 1019.9 25.9
2018-Apr-15 06:00N 20°15' W 063°53'1 0.8 1020.2 25.9
2018-Apr-15 05:00N 20°16' W 063°53'0 0.0 1020.7 25.9
2018-Apr-15 04:00N 20°16' W 063°53'0 0.0 1021.3 25.9
2018-Apr-15 03:00N 20°16' W 063°53'0 0.0 1021.8 25.9
2018-Apr-15 02:00N 20°16' W 063°53'0 0.0 1021.8 25.9
2018-Apr-15 01:00N 20°16' W 063°53'0 0.0 1021.5 25.9
2018-Apr-15 00:00N 20°16' W 063°53'0 0.0 1020.9 25.9
2018-Apr-14 23:00N 20°16' W 063°53'1 0.6 1020.2 25.9
2018-Apr-14 22:00N 20°16' W 063°52'1 0.6 1019.6 25.9
2018-Apr-14 21:00N 20°15' W 063°52'1 0.6 1019.4 26.0
2018-Apr-14 20:00N 20°15' W 063°52'0 0.0 1019.4 26.0
2018-Apr-14 19:00N 20°15' W 063°52'1 0.6 1019.7 26.0
2018-Apr-14 18:00N 20°15' W 063°51'1 0.6 1020.3 26.0
2018-Apr-14 17:00N 20°15' W 063°50'0 0.0 1021.1 25.9
2018-Apr-14 16:00N 20°15' W 063°50'1 0.6 1021.6 25.9
2018-Apr-14 15:00N 20°15' W 063°50'1 0.6 1021.9 25.9
2018-Apr-14 14:00N 20°16' W 063°50'1 0.6 1021.9 25.9
2018-Apr-14 13:00N 20°16' W 063°49'1 0.6 1021.4 25.9
2018-Apr-14 12:00N 20°16' W 063°49'1 0.6 1021.1 25.8
2018-Apr-14 11:00N 20°16' W 063°49'1 0.6 1020.5 25.8
2018-Apr-14 10:00N 20°16' W 063°48'0 0.0 1019.6 25.8
2018-Apr-14 09:00N 20°16' W 063°48'1 0.8 1019.0 25.9
2018-Apr-14 08:00N 20°17' W 063°47'1 0.6 1018.7 25.9
2018-Apr-14 07:00N 20°17' W 063°47'1 0.6 1018.9 25.8
2018-Apr-14 06:00N 20°17' W 063°47'0 0.0 1019.4 25.9
2018-Apr-14 05:00N 20°17' W 063°47'1 0.8 1020.0 25.9
2018-Apr-14 04:00N 20°18' W 063°46'0 0.0 1020.8 25.9
2018-Apr-14 03:00N 20°18' W 063°46'0 0.0 1021.1 25.9
2018-Apr-14 02:00N 20°18' W 063°46'1 0.8 1021.1 25.9
2018-Apr-14 01:00N 20°19' W 063°46'0 0.0 1020.7 25.9
2018-Apr-14 00:00N 20°19' W 063°46'0 0.0 1020.0 25.9
2018-Apr-13 23:00N 20°19' W 063°46'1 0.6 1019.4 25.9
2018-Apr-13 22:00N 20°19' W 063°45'0 0.0 1019.0 25.9
2018-Apr-13 21:00N 20°19' W 063°45'1 0.6 1018.9 26.0
2018-Apr-13 20:00N 20°19' W 063°44'0 0.0 1018.7 26.0
2018-Apr-13 19:00N 20°19' W 063°44'1 0.8 1018.9 26.0
2018-Apr-13 18:00N 20°19' W 063°44'0 0.0 1019.2 26.0
2018-Apr-13 17:00N 20°19' W 063°44'0 0.0 1020.0 26.0
2018-Apr-13 16:00N 20°19' W 063°44'1 0.8 1020.3 25.9
2018-Apr-13 15:00N 20°20' W 063°43'0 0.0 1020.6 25.9
2018-Apr-13 14:00N 20°20' W 063°43'1 0.6 1020.8 25.9
2018-Apr-13 13:00N 20°20' W 063°43'1 0.6 1020.6 25.8
2018-Apr-13 12:00N 20°20' W 063°43'1 0.6 1019.6 25.8
2018-Apr-13 11:00N 20°21' W 063°43'1 0.6 1018.9 25.8
2018-Apr-13 10:00N 20°21' W 063°42'1 0.6 1018.1 25.8
2018-Apr-13 09:00N 20°22' W 063°42'0 0.0 1017.5 25.8
2018-Apr-13 08:00N 20°22' W 063°42'1 0.8 1017.0 25.9
2018-Apr-13 07:00N 20°22' W 063°41'0 0.0 1017.1 25.9
2018-Apr-13 06:00N 20°22' W 063°41'1 0.6 1017.7 25.9
2018-Apr-13 05:00N 20°23' W 063°41'1 0.6 1018.3 25.8
2018-Apr-13 04:00N 20°23' W 063°41'1 0.6 1018.8 25.9
2018-Apr-13 03:00N 20°23' W 063°41'0 0.0 1018.9 25.9
2018-Apr-13 02:00N 20°23' W 063°41'1 0.6 1018.8 25.9
2018-Apr-13 01:00N 20°24' W 063°41'0 0.0 1018.7 26.0
2018-Apr-13 00:00N 20°24' W 063°41'0 0.0 1018.3 26.0
2018-Apr-12 23:00N 20°24' W 063°41'0 0.0 1017.8 26.0
2018-Apr-12 22:00N 20°24' W 063°41'0 0.0 1017.5 26.0
2018-Apr-12 21:00N 20°24' W 063°41'0 0.0 1017.1 26.0
2018-Apr-12 20:00N 20°24' W 063°41'1 0.6 1017.0 26.1
2018-Apr-12 19:00N 20°25' W 063°41'1 0.6 1017.1 26.1
2018-Apr-12 18:00N 20°25' W 063°40'0 0.0 1017.7 26.1
2018-Apr-12 17:00N 20°25' W 063°40'0 0.0 1018.3 26.1
2018-Apr-12 16:00N 20°25' W 063°40'1 0.6 1018.7 25.9
2018-Apr-12 15:00N 20°25' W 063°40'1 0.6 1019.0 25.9
2018-Apr-12 14:00N 20°25' W 063°40'0 0.0 1019.0 25.8
2018-Apr-12 13:00N 20°25' W 063°40'1 0.6 1018.8 25.8
2018-Apr-12 12:00N 20°26' W 063°40'1 0.6 1018.7 25.8
2018-Apr-12 11:00N 20°26' W 063°39'1 0.6 1018.4 25.7
2018-Apr-12 10:00N 20°26' W 063°39'1 0.6 1017.8 25.8
2018-Apr-12 09:00N 20°26' W 063°38'1 0.6 1017.5 25.7
2018-Apr-12 08:00N 20°27' W 063°38'0 0.0 1017.0 25.8
2018-Apr-12 07:00N 20°27' W 063°38'1 0.8 1017.3 25.8
2018-Apr-12 06:00N 20°28' W 063°38'1 0.6 1017.9 25.8
2018-Apr-12 05:00N 20°28' W 063°38'0 0.0 1018.3 25.8
2018-Apr-12 04:00N 20°28' W 063°38'   1018.7 25.8
Track history (hours):
 
Tides and Currents Weather Stations Pressure Air Temp Water Temp Dewpoint Dewpoint Depression Visibility Wind Speed Wind Dir Waves Ship Positions

Drifting buoy 31735

Last reported at 2018-Apr-22 04:00 UTC. Time now 2018-Apr-22 05:04 UTC.
Position N 20°23' W 064°13'.

Barometer 1019.0 mb
Water temperature 26.4 ° C

Date/timePositionNaut miles runAvg speedWind from/ knotsBaromVisibWave heightAir tempDewpointWater temp
2018-Apr-22 04:00N 20°23' W 064°13'0 0.0 1019.0 26.4
2018-Apr-22 03:00N 20°23' W 064°13'0 0.0 1019.1 26.3
2018-Apr-22 02:00N 20°23' W 064°13'1 0.8 1019.3 26.4
2018-Apr-22 01:00N 20°23' W 064°14'0 0.0 1019.1 26.4
2018-Apr-22 00:00N 20°23' W 064°14'0 0.0 1018.8 26.4
2018-Apr-21 23:00N 20°23' W 064°14'0 0.0 1018.2 26.4
2018-Apr-21 22:00N 20°23' W 064°14'0 0.0 1017.8 26.4
2018-Apr-21 21:00N 20°23' W 064°14'1 0.8 1017.3 26.4
2018-Apr-21 20:00N 20°22' W 064°13'0 0.0 1017.0 26.5
2018-Apr-21 19:00N 20°22' W 064°13'0 0.0 1017.6 26.5
2018-Apr-21 18:00N 20°22' W 064°13'1 0.6 1018.0 26.4
2018-Apr-21 17:00N 20°22' W 064°13'0 0.0 1018.7 26.4
2018-Apr-21 16:00N 20°22' W 064°13'1 0.6 1019.3 26.4
2018-Apr-21 15:00N 20°22' W 064°12'0 0.0 1019.7 26.4
2018-Apr-21 14:00N 20°22' W 064°12'0 0.0 1019.6 26.3
2018-Apr-21 13:00N 20°22' W 064°12'1 0.3 1019.8 26.3
2018-Apr-21 11:00N 20°23' W 064°12'0 0.0 1019.8 26.3
2018-Apr-21 10:00N 20°23' W 064°12'1 0.6 1019.2 26.3
2018-Apr-21 09:00N 20°23' W 064°12'0 0.0 1018.5 26.3
2018-Apr-21 08:00N 20°23' W 064°12'0 0.0 1018.4 26.3
2018-Apr-21 07:00N 20°23' W 064°12'0 0.0 1018.4 26.2
2018-Apr-21 06:00N 20°23' W 064°12'1 0.6 1018.8 26.3
2018-Apr-21 05:00N 20°23' W 064°13'0 0.0 1019.0 26.3
2018-Apr-21 04:00N 20°23' W 064°13'0 0.0 1019.5 26.3
2018-Apr-21 03:00N 20°23' W 064°13'1 0.6 1019.9 26.3
2018-Apr-21 02:00N 20°23' W 064°13'0 0.0 1019.9 26.3
2018-Apr-21 01:00N 20°23' W 064°13'1 0.8 1019.5 26.3
2018-Apr-21 00:00N 20°22' W 064°13'0 0.0 1019.1 26.4
2018-Apr-20 23:00N 20°22' W 064°13'0 0.0 1018.6 26.4
2018-Apr-20 22:00N 20°22' W 064°13'0 0.0 1018.5 26.4
2018-Apr-20 21:00N 20°22' W 064°13'1 0.6 1018.3 26.4
2018-Apr-20 20:00N 20°22' W 064°13'0 0.0 1018.4 26.4
2018-Apr-20 19:00N 20°22' W 064°13'0 0.0 1018.8 26.4
2018-Apr-20 18:00N 20°22' W 064°13'1 0.6 1019.6 26.4
2018-Apr-20 17:00N 20°21' W 064°13'1 0.6 1020.3 26.4
2018-Apr-20 16:00N 20°21' W 064°13'0 0.0 1020.8 26.4
2018-Apr-20 15:00N 20°21' W 064°13'1 0.8 1021.1 26.3
2018-Apr-20 14:00N 20°20' W 064°12'0 0.0 1021.0 26.3
2018-Apr-20 13:00N 20°20' W 064°12'1 0.6 1021.3 26.2
2018-Apr-20 12:00N 20°20' W 064°11'1 0.6 1021.1 26.2
2018-Apr-20 11:00N 20°20' W 064°11'0 0.0 1020.7 26.2
2018-Apr-20 10:00N 20°20' W 064°11'1 0.6 1020.4 26.2
2018-Apr-20 09:00N 20°20' W 064°11'0 0.0 1019.8 26.2
2018-Apr-20 08:00N 20°20' W 064°11'0 0.0 1019.8 26.2
2018-Apr-20 07:00N 20°20' W 064°11'1 0.6 1020.1 26.2
2018-Apr-20 06:00N 20°20' W 064°10'1 0.6 1020.6 26.2
2018-Apr-20 05:00N 20°20' W 064°10'0 0.0 1021.3 26.2
2018-Apr-20 04:00N 20°20' W 064°10'0 0.0 1021.8 26.2
2018-Apr-20 03:00N 20°20' W 064°10'1 0.6 1022.1 26.2
2018-Apr-20 02:00N 20°20' W 064°10'0 0.0 1022.0 26.3
2018-Apr-20 01:00N 20°20' W 064°10'1 0.6 1021.6 26.3
2018-Apr-20 00:00N 20°20' W 064°10'0 0.0 1021.2 26.3
2018-Apr-19 23:00N 20°20' W 064°10'0 0.0 1020.9 26.3
2018-Apr-19 22:00N 20°20' W 064°10'1 0.6 1020.8 26.3
2018-Apr-19 21:00N 20°20' W 064°11'0 0.0 1020.4 26.4
2018-Apr-19 20:00N 20°20' W 064°11'1 0.6 1020.4 26.4
2018-Apr-19 19:00N 20°20' W 064°11'1 0.6 1020.6 26.4
2018-Apr-19 18:00N 20°20' W 064°11'0 0.0 1021.0 26.4
2018-Apr-19 17:00N 20°20' W 064°11'1 0.6 1021.5 26.4
2018-Apr-19 16:00N 20°19' W 064°11'1 0.6 1022.0 26.3
2018-Apr-19 15:00N 20°19' W 064°11'1 0.6 1022.2 26.3
2018-Apr-19 14:00N 20°19' W 064°11'1 0.6 1022.1 26.3
2018-Apr-19 13:00N 20°18' W 064°11'1 0.8 1021.8 26.2
2018-Apr-19 12:00N 20°17' W 064°10'0 0.0 1021.4 26.2
2018-Apr-19 11:00N 20°17' W 064°10'1 0.6 1020.8 26.2
2018-Apr-19 10:00N 20°17' W 064°10'1 0.6 1020.1 26.2
2018-Apr-19 09:00N 20°17' W 064°10'0 0.0 1019.5 26.2
2018-Apr-19 08:00N 20°17' W 064°10'0 0.0 1019.0 26.3
2018-Apr-19 07:00N 20°17' W 064°10'0 0.0 1019.0 26.3
2018-Apr-19 06:00N 20°17' W 064°10'1 0.6 1019.4 26.3
2018-Apr-19 05:00N 20°17' W 064°09'1 0.6 1020.1 26.3
2018-Apr-19 04:00N 20°16' W 064°09'0 0.0 1020.6 26.3
2018-Apr-19 03:00N 20°16' W 064°09'0 0.0 1021.1 26.3
2018-Apr-19 02:00N 20°16' W 064°09'1 0.6 1021.2 26.4
2018-Apr-19 01:00N 20°16' W 064°08'0 0.0 1021.1 26.4
2018-Apr-19 00:00N 20°16' W 064°08'0 0.0 1020.3 26.4
2018-Apr-18 23:00N 20°16' W 064°08'1 0.8 1019.7 26.4
2018-Apr-18 22:00N 20°16' W 064°08'0 0.0 1019.1 26.4
2018-Apr-18 21:00N 20°16' W 064°08'0 0.0 1018.8 26.5
2018-Apr-18 20:00N 20°16' W 064°08'1 0.6 1018.7 26.4
2018-Apr-18 19:00N 20°16' W 064°08'0 0.0 1018.8 26.4
2018-Apr-18 18:00N 20°16' W 064°08'0 0.0 1019.2 26.4
2018-Apr-18 17:00N 20°16' W 064°08'1 0.6 1019.7 26.4
2018-Apr-18 16:00N 20°16' W 064°07'0 0.0 1019.9 26.3
2018-Apr-18 15:00N 20°16' W 064°07'0 0.0 1020.2 26.3
2018-Apr-18 14:00N 20°16' W 064°07'0 0.0 1020.0 26.2
2018-Apr-18 13:00N 20°16' W 064°07'0 0.0 1019.6 26.2
2018-Apr-18 12:00N 20°16' W 064°07'1 0.6 1019.2 26.2
2018-Apr-18 11:00N 20°16' W 064°07'0 0.0 1018.6 26.2
2018-Apr-18 10:00N 20°16' W 064°07'0 0.0 1018.1 26.2
2018-Apr-18 09:00N 20°16' W 064°07'0 0.0 1017.4 26.2
2018-Apr-18 08:00N 20°16' W 064°07'0 0.0 1017.1 26.2
2018-Apr-18 07:00N 20°16' W 064°07'0 0.0 1016.9 26.2
2018-Apr-18 06:00N 20°16' W 064°07'1 0.6 1017.4 26.2
2018-Apr-18 05:00N 20°15' W 064°07'0 0.0 1018.1 26.2
2018-Apr-18 04:00N 20°15' W 064°07'0 0.0 1018.5 26.2
2018-Apr-18 03:00N 20°15' W 064°07'0 0.0 1018.7 26.3
2018-Apr-18 02:00N 20°15' W 064°07'1 0.6 1018.7 26.3
2018-Apr-18 01:00N 20°14' W 064°07'0 0.0 1018.3 26.3
2018-Apr-18 00:00N 20°14' W 064°07'1 0.6 1017.6 26.3
2018-Apr-17 23:00N 20°14' W 064°07'1 0.6 1017.1 26.3
2018-Apr-17 22:00N 20°14' W 064°07'0 0.0 1016.9 26.3
2018-Apr-17 21:00N 20°14' W 064°07'1 0.6 1016.7 26.4
2018-Apr-17 20:00N 20°13' W 064°07'1 0.6 1016.5 26.4
2018-Apr-17 19:00N 20°13' W 064°06'0 0.0 1016.9 26.4
2018-Apr-17 18:00N 20°13' W 064°06'1 0.6 1017.2 26.4
2018-Apr-17 17:00N 20°14' W 064°06'1 0.6 1018.0 26.2
2018-Apr-17 16:00N 20°14' W 064°05'0 0.0 1018.5 26.2
2018-Apr-17 15:00N 20°14' W 064°05'0 0.0 1018.9 26.1
2018-Apr-17 14:00N 20°14' W 064°05'1 0.6 1018.8 26.1
2018-Apr-17 13:00N 20°14' W 064°05'1 0.6 1019.0 26.0
2018-Apr-17 12:00N 20°13' W 064°05'0 0.0 1018.4 26.0
2018-Apr-17 11:00N 20°13' W 064°05'1 0.6 1017.9 26.0
2018-Apr-17 10:00N 20°13' W 064°04'0 0.0 1017.6 26.0
2018-Apr-17 09:00N 20°13' W 064°04'1 0.6 1017.3 26.0
2018-Apr-17 08:00N 20°13' W 064°04'0 0.0 1017.2 26.0
2018-Apr-17 07:00N 20°13' W 064°04'1 0.6 1017.5 26.0
2018-Apr-17 06:00N 20°14' W 064°04'1 0.6 1018.0 26.0
2018-Apr-17 05:00N 20°14' W 064°03'0 0.0 1018.5 26.0
2018-Apr-17 04:00N 20°14' W 064°03'0 0.0 1019.2 26.0
2018-Apr-17 03:00N 20°14' W 064°03'0 0.0 1019.3 26.0
2018-Apr-17 02:00N 20°14' W 064°03'0 0.0 1019.3 26.0
2018-Apr-17 01:00N 20°14' W 064°03'0 0.0 1018.9 26.0
2018-Apr-17 00:00N 20°14' W 064°03'0 0.0 1018.4 26.0
2018-Apr-16 23:00N 20°14' W 064°03'0 0.0 1018.1 26.0
2018-Apr-16 22:00N 20°14' W 064°03'0 0.0 1017.6 26.0
2018-Apr-16 21:00N 20°14' W 064°03'1 0.8 1017.6 26.1
2018-Apr-16 20:00N 20°13' W 064°02'0 0.0 1017.8 26.1
2018-Apr-16 19:00N 20°13' W 064°02'0 0.0 1018.2 26.1
2018-Apr-16 18:00N 20°13' W 064°02'1 0.6 1018.8 26.1
2018-Apr-16 17:00N 20°13' W 064°02'0 0.0 1019.6 26.0
2018-Apr-16 16:00N 20°13' W 064°02'0 0.0 1020.3 26.0
2018-Apr-16 15:00N 20°13' W 064°02'1 0.6 1021.1 26.0
2018-Apr-16 14:00N 20°13' W 064°01'0 0.0 1021.3 25.9
2018-Apr-16 13:00N 20°13' W 064°01'0 0.0 1021.0 25.9
2018-Apr-16 12:00N 20°13' W 064°01'1 0.6 1020.7 25.9
2018-Apr-16 11:00N 20°13' W 064°01'0 0.0 1020.4 25.9
2018-Apr-16 10:00N 20°13' W 064°01'1 0.6 1019.9 25.9
2018-Apr-16 09:00N 20°13' W 064°00'0 0.0 1019.4 25.9
2018-Apr-16 08:00N 20°13' W 064°00'0 0.0 1019.4 25.9
2018-Apr-16 07:00N 20°13' W 064°00'1 0.6 1019.4 25.9
2018-Apr-16 06:00N 20°13' W 063°59'0 0.0 1020.0 25.9
2018-Apr-16 05:00N 20°13' W 063°59'1 0.6 1020.6 25.9
2018-Apr-16 04:00N 20°13' W 063°59'0 0.0 1021.1 25.9
2018-Apr-16 03:00N 20°13' W 063°59'0 0.0 1021.5 25.9
2018-Apr-16 02:00N 20°13' W 063°59'1 0.6 1021.4 25.9
2018-Apr-16 01:00N 20°13' W 063°58'0 0.0 1021.2 25.9
2018-Apr-16 00:00N 20°13' W 063°58'1 0.6 1020.7 25.9
2018-Apr-15 23:00N 20°13' W 063°58'0 0.0 1020.3 26.0
2018-Apr-15 22:00N 20°13' W 063°58'1 0.6 1020.0 26.0
2018-Apr-15 21:00N 20°13' W 063°57'1 0.6 1019.7 26.0
2018-Apr-15 20:00N 20°13' W 063°56'0 0.0 1020.0 26.0
2018-Apr-15 19:00N 20°13' W 063°56'1 0.6 1020.3 26.0
2018-Apr-15 18:00N 20°13' W 063°56'1 0.6 1021.2 26.0
2018-Apr-15 17:00N 20°14' W 063°56'1 0.6 1022.2 26.0
2018-Apr-15 16:00N 20°14' W 063°55'0 0.0 1022.6 26.0
2018-Apr-15 15:00N 20°14' W 063°55'1 0.6 1022.7 25.9
2018-Apr-15 14:00N 20°14' W 063°55'1 0.6 1022.6 25.9
2018-Apr-15 13:00N 20°14' W 063°55'0 0.0 1022.1 25.9
2018-Apr-15 12:00N 20°14' W 063°55'1 0.6 1021.7 25.9
2018-Apr-15 11:00N 20°14' W 063°54'0 0.0 1021.1 25.9
2018-Apr-15 10:00N 20°14' W 063°54'0 0.0 1020.6 25.9
2018-Apr-15 09:00N 20°14' W 063°54'1 0.8 1020.0 25.9
2018-Apr-15 08:00N 20°15' W 063°53'0 0.0 1019.8 25.9
2018-Apr-15 07:00N 20°15' W 063°53'0 0.0 1019.9 25.9
2018-Apr-15 06:00N 20°15' W 063°53'1 0.8 1020.2 25.9
2018-Apr-15 05:00N 20°16' W 063°53'0 0.0 1020.7 25.9
2018-Apr-15 04:00N 20°16' W 063°53'0 0.0 1021.3 25.9
2018-Apr-15 03:00N 20°16' W 063°53'0 0.0 1021.8 25.9
2018-Apr-15 02:00N 20°16' W 063°53'0 0.0 1021.8 25.9
2018-Apr-15 01:00N 20°16' W 063°53'0 0.0 1021.5 25.9
2018-Apr-15 00:00N 20°16' W 063°53'0 0.0 1020.9 25.9
2018-Apr-14 23:00N 20°16' W 063°53'1 0.6 1020.2 25.9
2018-Apr-14 22:00N 20°16' W 063°52'1 0.6 1019.6 25.9
2018-Apr-14 21:00N 20°15' W 063°52'1 0.6 1019.4 26.0
2018-Apr-14 20:00N 20°15' W 063°52'0 0.0 1019.4 26.0
2018-Apr-14 19:00N 20°15' W 063°52'1 0.6 1019.7 26.0
2018-Apr-14 18:00N 20°15' W 063°51'1 0.6 1020.3 26.0
2018-Apr-14 17:00N 20°15' W 063°50'0 0.0 1021.1 25.9
2018-Apr-14 16:00N 20°15' W 063°50'1 0.6 1021.6 25.9
2018-Apr-14 15:00N 20°15' W 063°50'1 0.6 1021.9 25.9
2018-Apr-14 14:00N 20°16' W 063°50'1 0.6 1021.9 25.9
2018-Apr-14 13:00N 20°16' W 063°49'1 0.6 1021.4 25.9
2018-Apr-14 12:00N 20°16' W 063°49'1 0.6 1021.1 25.8
2018-Apr-14 11:00N 20°16' W 063°49'1 0.6 1020.5 25.8
2018-Apr-14 10:00N 20°16' W 063°48'0 0.0 1019.6 25.8
2018-Apr-14 09:00N 20°16' W 063°48'1 0.8 1019.0 25.9
2018-Apr-14 08:00N 20°17' W 063°47'1 0.6 1018.7 25.9
2018-Apr-14 07:00N 20°17' W 063°47'1 0.6 1018.9 25.8
2018-Apr-14 06:00N 20°17' W 063°47'0 0.0 1019.4 25.9
2018-Apr-14 05:00N 20°17' W 063°47'1 0.8 1020.0 25.9
2018-Apr-14 04:00N 20°18' W 063°46'0 0.0 1020.8 25.9
2018-Apr-14 03:00N 20°18' W 063°46'0 0.0 1021.1 25.9
2018-Apr-14 02:00N 20°18' W 063°46'1 0.8 1021.1 25.9
2018-Apr-14 01:00N 20°19' W 063°46'0 0.0 1020.7 25.9
2018-Apr-14 00:00N 20°19' W 063°46'0 0.0 1020.0 25.9
2018-Apr-13 23:00N 20°19' W 063°46'1 0.6 1019.4 25.9
2018-Apr-13 22:00N 20°19' W 063°45'0 0.0 1019.0 25.9
2018-Apr-13 21:00N 20°19' W 063°45'1 0.6 1018.9 26.0
2018-Apr-13 20:00N 20°19' W 063°44'0 0.0 1018.7 26.0
2018-Apr-13 19:00N 20°19' W 063°44'1 0.8 1018.9 26.0
2018-Apr-13 18:00N 20°19' W 063°44'0 0.0 1019.2 26.0
2018-Apr-13 17:00N 20°19' W 063°44'0 0.0 1020.0 26.0
2018-Apr-13 16:00N 20°19' W 063°44'1 0.8 1020.3 25.9
2018-Apr-13 15:00N 20°20' W 063°43'0 0.0 1020.6 25.9
2018-Apr-13 14:00N 20°20' W 063°43'1 0.6 1020.8 25.9
2018-Apr-13 13:00N 20°20' W 063°43'1 0.6 1020.6 25.8
2018-Apr-13 12:00N 20°20' W 063°43'1 0.6 1019.6 25.8
2018-Apr-13 11:00N 20°21' W 063°43'1 0.6 1018.9 25.8
2018-Apr-13 10:00N 20°21' W 063°42'1 0.6 1018.1 25.8
2018-Apr-13 09:00N 20°22' W 063°42'0 0.0 1017.5 25.8
2018-Apr-13 08:00N 20°22' W 063°42'1 0.8 1017.0 25.9
2018-Apr-13 07:00N 20°22' W 063°41'0 0.0 1017.1 25.9
2018-Apr-13 06:00N 20°22' W 063°41'1 0.6 1017.7 25.9
2018-Apr-13 05:00N 20°23' W 063°41'1 0.6 1018.3 25.8
2018-Apr-13 04:00N 20°23' W 063°41'1 0.6 1018.8 25.9
2018-Apr-13 03:00N 20°23' W 063°41'0 0.0 1018.9 25.9
2018-Apr-13 02:00N 20°23' W 063°41'1 0.6 1018.8 25.9
2018-Apr-13 01:00N 20°24' W 063°41'0 0.0 1018.7 26.0
2018-Apr-13 00:00N 20°24' W 063°41'0 0.0 1018.3 26.0
2018-Apr-12 23:00N 20°24' W 063°41'0 0.0 1017.8 26.0
2018-Apr-12 22:00N 20°24' W 063°41'0 0.0 1017.5 26.0
2018-Apr-12 21:00N 20°24' W 063°41'0 0.0 1017.1 26.0
2018-Apr-12 20:00N 20°24' W 063°41'1 0.6 1017.0 26.1
2018-Apr-12 19:00N 20°25' W 063°41'1 0.6 1017.1 26.1
2018-Apr-12 18:00N 20°25' W 063°40'0 0.0 1017.7 26.1
2018-Apr-12 17:00N 20°25' W 063°40'0 0.0 1018.3 26.1
2018-Apr-12 16:00N 20°25' W 063°40'1 0.6 1018.7 25.9
2018-Apr-12 15:00N 20°25' W 063°40'1 0.6 1019.0 25.9
2018-Apr-12 14:00N 20°25' W 063°40'0 0.0 1019.0 25.8
2018-Apr-12 13:00N 20°25' W 063°40'1 0.6 1018.8 25.8
2018-Apr-12 12:00N 20°26' W 063°40'1 0.6 1018.7 25.8
2018-Apr-12 11:00N 20°26' W 063°39'1 0.6 1018.4 25.7
2018-Apr-12 10:00N 20°26' W 063°39'1 0.6 1017.8 25.8
2018-Apr-12 09:00N 20°26' W 063°38'1 0.6 1017.5 25.7
2018-Apr-12 08:00N 20°27' W 063°38'0 0.0 1017.0 25.8
2018-Apr-12 07:00N 20°27' W 063°38'1 0.8 1017.3 25.8
2018-Apr-12 06:00N 20°28' W 063°38'1 0.6 1017.9 25.8
2018-Apr-12 05:00N 20°28' W 063°38'0 0.0 1018.3 25.8
2018-Apr-12 04:00N 20°28' W 063°38'   1018.7 25.8

Dump ship's entire track history